Time;durP1;ratioP1;P1;durP2;ratioP2;P2;SDS_P1;SDS_P2;PMS_P1;PMS_P2;Temp;Humidity;BMP_temperature;BMP_pressure;BME280_temperature;BME280_humidity;BME280_pressure;Samples;Min_cycle;Max_cycle;Signal;HPM_P1;HPM_P2
2022/04/24 00:01:32;;;;;;;24.55;22.85;;;8.90;99.90;;;;;;4980497;28;20053;-72
2022/04/24 00:04:00;;;;;;;25.65;23.73;;;8.90;99.90;;;;;;4991998;28;20042;-72
2022/04/24 00:06:27;;;;;;;25.08;23.02;;;8.90;99.90;;;;;;4993936;28;20566;-71
2022/04/24 00:08:55;;;;;;;24.90;22.90;;;8.90;99.90;;;;;;4983438;28;20050;-72
2022/04/24 00:11:22;;;;;;;23.88;22.02;;;9.00;99.90;;;;;;4974184;28;20081;-73
2022/04/24 00:13:49;;;;;;;25.00;23.20;;;9.10;99.90;;;;;;4973735;28;20078;-72
2022/04/24 00:16:16;;;;;;;24.05;22.35;;;9.10;99.90;;;;;;4974597;28;20231;-72
2022/04/24 00:18:42;;;;;;;24.20;22.52;;;9.20;99.90;;;;;;4977260;28;20159;-73
2022/04/24 00:21:09;;;;;;;24.55;22.85;;;9.10;99.90;;;;;;4992771;28;20042;-73
2022/04/24 00:23:36;;;;;;;24.63;22.83;;;9.10;99.90;;;;;;4985740;28;20124;-73
2022/04/24 00:26:03;;;;;;;24.13;22.33;;;9.00;99.90;;;;;;4982132;28;20056;-72
2022/04/24 00:28:30;;;;;;;24.30;22.60;;;9.00;99.90;;;;;;4976161;28;20575;-72
2022/04/24 00:30:57;;;;;;;25.65;23.65;;;8.90;99.90;;;;;;4976730;28;20054;-72
2022/04/24 00:33:24;;;;;;;24.77;22.98;;;8.80;99.90;;;;;;4992297;28;20153;-71
2022/04/24 00:35:51;;;;;;;25.38;23.30;;;8.80;99.90;;;;;;4993319;28;20551;-71
2022/04/24 00:38:18;;;;;;;24.85;22.95;;;8.80;99.90;;;;;;4994419;28;20579;-72
2022/04/24 00:40:48;;;;;;;24.65;22.85;;;8.90;99.90;;;;;;4992026;28;20309;-72
2022/04/24 00:43:15;;;;;;;25.10;23.30;;;8.80;99.90;;;;;;4991207;28;20259;-72
2022/04/24 00:46:18;;;;;;;26.52;24.27;;;8.70;99.90;;;;;;4991565;28;20229;-72
2022/04/24 00:48:45;;;;;;;25.67;23.75;;;8.60;99.90;;;;;;4991268;28;20465;-72
2022/04/24 00:51:12;;;;;;;26.95;24.85;;;8.60;99.90;;;;;;4972066;28;20050;-71
2022/04/24 00:53:39;;;;;;;26.42;24.27;;;8.70;99.90;;;;;;4972009;28;20062;-72
2022/04/24 00:56:07;;;;;;;26.55;24.55;;;8.70;99.90;;;;;;4980964;28;20048;-72
2022/04/24 00:58:34;;;;;;;26.70;24.70;;;8.70;99.90;;;;;;4991942;28;20108;-72
2022/04/24 01:01:01;;;;;;;25.27;23.48;;;8.70;99.90;;;;;;4988672;28;20288;-72
2022/04/24 01:03:28;;;;;;;26.90;24.75;;;8.50;99.90;;;;;;4991085;28;20463;-72
2022/04/24 01:05:55;;;;;;;27.13;25.02;;;8.50;99.90;;;;;;4991219;28;20072;-72
2022/04/24 01:08:22;;;;;;;27.42;25.13;;;8.50;99.90;;;;;;4992582;28;20559;-73
2022/04/24 01:10:49;;;;;;;26.00;24.00;;;8.40;99.90;;;;;;4983560;28;20050;-72
2022/04/24 01:13:16;;;;;;;25.67;23.77;;;8.40;99.90;;;;;;4980429;28;20307;-70
2022/04/24 01:15:42;;;;;;;27.30;25.23;;;8.40;99.90;;;;;;4993152;28;20544;-72
2022/04/24 01:18:10;;;;;;;26.58;24.67;;;8.40;99.90;;;;;;4991159;28;20718;-72
2022/04/24 01:20:37;;;;;;;26.58;24.27;;;8.50;99.90;;;;;;4990881;28;20519;-72
2022/04/24 01:23:04;;;;;;;26.52;24.42;;;8.50;99.90;;;;;;4985708;28;20050;-72
2022/04/24 01:25:31;;;;;;;28.27;26.00;;;8.50;99.90;;;;;;4970273;28;20097;-71
2022/04/24 01:27:58;;;;;;;26.48;24.38;;;8.50;99.90;;;;;;4976363;28;20512;-70
2022/04/24 01:30:24;;;;;;;26.52;24.45;;;8.50;99.90;;;;;;4989056;28;20511;-72
2022/04/24 01:32:51;;;;;;;27.60;25.17;;;8.50;99.90;;;;;;4990966;28;20465;-73
2022/04/24 01:35:18;;;;;;;26.75;24.75;;;8.50;99.90;;;;;;4989674;28;20120;-71
2022/04/24 01:37:45;;;;;;;27.95;25.10;;;8.40;99.90;;;;;;4991347;28;20045;-73
2022/04/24 01:40:11;;;;;;;27.60;25.50;;;8.40;99.90;;;;;;4990443;28;20544;-73
2022/04/24 01:42:38;;;;;;;28.58;26.35;;;8.30;99.90;;;;;;4989643;28;20045;-72
2022/04/24 01:45:06;;;;;;;28.80;26.15;;;8.30;99.90;;;;;;5014096;23;20046;-75
2022/04/24 01:47:33;;;;;;;27.85;25.52;;;8.20;99.90;;;;;;5013092;28;20057;-75
2022/04/24 01:50:00;;;;;;;27.58;25.27;;;8.20;99.90;;;;;;4996671;28;20149;-76
2022/04/24 01:52:26;;;;;;;26.83;24.73;;;8.20;99.90;;;;;;5001650;28;20050;-76
2022/04/24 01:54:53;;;;;;;28.02;25.83;;;8.10;99.90;;;;;;4995786;28;20515;-77
2022/04/24 01:57:20;;;;;;;28.35;25.73;;;8.00;99.90;;;;;;4990695;28;20053;-74
2022/04/24 01:59:47;;;;;;;27.75;25.52;;;8.00;99.90;;;;;;4988827;28;20153;-77
2022/04/24 02:02:13;;;;;;;28.35;26.05;;;7.90;99.90;;;;;;4998254;28;20038;-76
2022/04/24 02:04:40;;;;;;;26.92;24.73;;;7.90;99.90;;;;;;4971264;28;20504;-77
2022/04/24 02:07:07;;;;;;;27.63;25.52;;;7.80;99.90;;;;;;5006199;28;20041;-77
2022/04/24 02:09:35;;;;;;;26.83;24.80;;;7.80;99.90;;;;;;5006448;28;20046;-77
2022/04/24 02:12:02;;;;;;;27.52;25.20;;;7.80;99.90;;;;;;4982415;28;20080;-76
2022/04/24 02:14:28;;;;;;;27.77;25.48;;;7.70;99.90;;;;;;4987970;28;20679;-77
2022/04/24 02:16:55;;;;;;;28.35;26.08;;;7.70;99.90;;;;;;4986390;28;20066;-76
2022/04/24 02:19:22;;;;;;;26.63;24.55;;;7.70;99.90;;;;;;4985814;28;20058;-77
2022/04/24 02:21:49;;;;;;;25.95;23.85;;;7.60;99.90;;;;;;5012299;28;20568;-76
2022/04/24 02:24:16;;;;;;;27.02;24.65;;;7.70;99.90;;;;;;5019009;28;20100;-76
2022/04/24 02:26:42;;;;;;;27.65;25.35;;;7.70;99.90;;;;;;4996778;28;20636;-77
2022/04/24 02:29:09;;;;;;;27.17;24.98;;;7.60;99.90;;;;;;4986071;28;20058;-76
2022/04/24 02:31:36;;;;;;;27.25;25.10;;;7.60;99.90;;;;;;4976048;28;20121;-75
2022/04/24 02:34:03;;;;;;;27.40;24.98;;;7.60;99.90;;;;;;5000282;28;20068;-77
2022/04/24 02:36:29;;;;;;;26.13;24.13;;;7.50;99.90;;;;;;5004389;28;20046;-77
2022/04/24 02:38:56;;;;;;;25.38;23.20;;;7.60;99.90;;;;;;5003276;28;20072;-76
2022/04/24 02:41:27;;;;;;;25.80;23.80;;;7.70;99.90;;;;;;5000212;28;20489;-77
2022/04/24 02:43:53;;;;;;;25.13;23.17;;;7.60;99.90;;;;;;4986782;28;20446;-77
2022/04/24 02:46:20;;;;;;;26.63;24.33;;;7.60;99.90;;;;;;4995066;28;20140;-76
2022/04/24 02:48:47;;;;;;;26.38;24.17;;;7.70;99.90;;;;;;5005658;28;20050;-76
2022/04/24 02:51:13;;;;;;;24.17;22.33;;;7.60;99.90;;;;;;5019639;28;20069;-77
2022/04/24 02:53:43;;;;;;;26.70;24.20;;;7.50;99.90;;;;;;4985009;28;20163;-77
2022/04/24 02:56:10;;;;;;;25.15;22.73;;;7.60;99.90;;;;;;4993202;28;20057;-76
2022/04/24 02:58:38;;;;;;;25.45;23.35;;;7.60;99.90;;;;;;5003432;28;20535;-76
2022/04/24 03:01:05;;;;;;;25.70;23.42;;;7.50;99.90;;;;;;5000630;28;20054;-76
2022/04/24 03:03:32;;;;;;;25.92;23.58;;;7.50;99.90;;;;;;4976924;28;20065;-77
2022/04/24 03:05:59;;;;;;;25.25;23.15;;;7.40;99.90;;;;;;5003362;28;20529;-77
2022/04/24 03:08:27;;;;;;;23.83;21.98;;;7.40;99.90;;;;;;5005460;28;20064;-77
2022/04/24 03:10:53;;;;;;;24.58;22.48;;;7.50;99.90;;;;;;4990663;28;20681;-77
2022/04/24 03:13:20;;;;;;;25.20;23.10;;;7.40;99.90;;;;;;4996021;28;20116;-76
2022/04/24 03:15:47;;;;;;;24.60;22.58;;;7.40;99.90;;;;;;4989708;28;20049;-76
2022/04/24 03:18:14;;;;;;;23.95;21.73;;;7.40;99.90;;;;;;5004262;28;20103;-77
2022/04/24 03:20:41;;;;;;;24.70;22.60;;;7.40;99.90;;;;;;5002338;28;20045;-76
2022/04/24 03:23:07;;;;;;;24.95;22.70;;;7.50;99.90;;;;;;4998875;28;20524;-77
2022/04/24 03:25:34;;;;;;;25.73;23.33;;;7.50;99.90;;;;;;4992029;28;20109;-76
2022/04/24 03:28:01;;;;;;;24.90;22.63;;;7.50;99.90;;;;;;4999543;28;20053;-76
2022/04/24 03:30:28;;;;;;;25.00;23.10;;;7.40;99.90;;;;;;5019806;28;20116;-76
2022/04/24 03:32:55;;;;;;;23.85;21.85;;;7.40;99.90;;;;;;4993159;28;20101;-77
2022/04/24 03:35:21;;;;;;;26.05;23.27;;;7.30;99.90;;;;;;4983235;28;20548;-77
2022/04/24 03:37:48;;;;;;;25.42;22.90;;;7.30;99.90;;;;;;4984293;28;20124;-76
2022/04/24 03:40:15;;;;;;;24.63;22.73;;;7.20;99.90;;;;;;4983003;28;20050;-77
2022/04/24 03:42:42;;;;;;;25.42;23.00;;;7.30;99.90;;;;;;4976288;28;20072;-76
2022/04/24 03:45:11;;;;;;;23.85;21.88;;;7.20;99.90;;;;;;4986719;28;20053;-77
2022/04/24 03:47:39;;;;;;;24.27;22.27;;;7.10;99.90;;;;;;5003669;28;20050;-76
2022/04/24 03:50:06;;;;;;;24.38;22.42;;;7.00;99.90;;;;;;5002748;28;20736;-77
2022/04/24 03:52:33;;;;;;;26.27;23.83;;;7.00;99.90;;;;;;5000350;28;20076;-76
2022/04/24 03:55:00;;;;;;;26.58;23.92;;;6.90;99.90;;;;;;5000435;28;20103;-76
2022/04/24 03:57:27;;;;;;;26.67;23.75;;;6.80;99.90;;;;;;4989686;28;20146;-78
2022/04/24 03:59:54;;;;;;;24.00;22.10;;;6.80;99.90;;;;;;4982433;28;20604;-76
2022/04/24 04:02:20;;;;;;;23.10;21.23;;;6.80;99.90;;;;;;5007439;28;20532;-76
2022/04/24 04:04:47;;;;;;;25.30;23.10;;;6.80;99.90;;;;;;4998423;28;20048;-77
2022/04/24 04:07:14;;;;;;;23.88;21.85;;;6.80;99.90;;;;;;5018586;28;20049;-77
2022/04/24 04:09:41;;;;;;;25.05;22.67;;;6.70;99.90;;;;;;4999485;28;20100;-77
2022/04/24 04:12:08;;;;;;;24.17;22.08;;;6.80;99.90;;;;;;4990137;28;20544;-77
2022/04/24 04:14:35;;;;;;;24.95;22.70;;;6.70;99.90;;;;;;4992708;28;20041;-76
2022/04/24 04:17:03;;;;;;;24.50;22.40;;;6.70;99.90;;;;;;5002132;28;20050;-77
2022/04/24 04:19:32;;;;;;;25.48;22.65;;;6.70;99.90;;;;;;4988298;28;20513;-78
2022/04/24 04:21:59;;;;;;;24.77;22.38;;;6.70;99.90;;;;;;4994155;28;20049;-77
2022/04/24 04:24:25;;;;;;;27.17;24.75;;;6.70;99.90;;;;;;4996163;28;20691;-76
2022/04/24 04:26:52;;;;;;;26.63;24.15;;;6.70;99.90;;;;;;4990940;28;20050;-77
2022/04/24 04:29:19;;;;;;;25.80;23.67;;;6.70;99.90;;;;;;4981897;28;20050;-77
2022/04/24 04:31:45;;;;;;;26.83;24.42;;;6.70;99.90;;;;;;4966306;28;20137;-77
2022/04/24 04:34:12;;;;;;;27.92;25.45;;;6.70;99.90;;;;;;4982929;28;20449;-76
2022/04/24 04:36:39;;;;;;;24.85;22.75;;;6.70;99.90;;;;;;5002755;28;20065;-77
2022/04/24 04:39:06;;;;;;;26.73;24.42;;;6.70;99.90;;;;;;5002464;28;20159;-76
2022/04/24 04:41:32;;;;;;;24.65;22.60;;;6.70;99.90;;;;;;4985938;28;20050;-77
2022/04/24 04:44:00;;;;;;;25.95;23.83;;;6.80;99.90;;;;;;4984945;28;21020;-77
2022/04/24 04:46:26;;;;;;;27.33;25.02;;;6.80;99.90;;;;;;4993747;28;20045;-76
2022/04/24 04:48:53;;;;;;;26.73;24.33;;;6.70;99.90;;;;;;5002246;28;20104;-76
2022/04/24 04:51:20;;;;;;;25.95;23.75;;;6.70;99.90;;;;;;5018506;28;20081;-77
2022/04/24 04:53:47;;;;;;;28.35;25.58;;;6.70;99.90;;;;;;5017843;28;20404;-76
2022/04/24 04:56:15;;;;;;;27.15;24.60;;;6.70;99.90;;;;;;4996403;28;20116;-77
2022/04/24 04:58:41;;;;;;;25.13;23.05;;;6.70;99.90;;;;;;5002042;28;20088;-76
2022/04/24 05:01:08;;;;;;;27.02;24.45;;;6.70;99.90;;;;;;5001772;28;20398;-76
2022/04/24 05:03:35;;;;;;;27.25;24.75;;;6.90;99.90;;;;;;4985489;28;20045;-76
2022/04/24 05:06:02;;;;;;;26.77;24.20;;;6.90;99.90;;;;;;5006739;28;20045;-77
2022/04/24 05:08:29;;;;;;;26.38;23.98;;;7.00;99.90;;;;;;5002155;28;20088;-76
2022/04/24 05:10:56;;;;;;;26.75;24.48;;;7.00;99.90;;;;;;5007465;28;20054;-75
2022/04/24 05:13:22;;;;;;;26.75;24.38;;;7.00;99.90;;;;;;4992332;28;20120;-76
2022/04/24 05:15:49;;;;;;;27.08;24.67;;;7.00;99.90;;;;;;5018032;28;20304;-77
2022/04/24 05:18:16;;;;;;;25.83;23.55;;;7.00;99.90;;;;;;5002370;28;20045;-76
2022/04/24 05:20:43;;;;;;;28.00;25.67;;;7.10;99.90;;;;;;5001832;28;20042;-77
2022/04/24 05:23:10;;;;;;;26.58;24.30;;;7.10;99.90;;;;;;5000560;28;20046;-77
2022/04/24 05:25:37;;;;;;;26.33;24.13;;;7.20;99.90;;;;;;4995655;28;20128;-76
2022/04/24 05:28:05;;;;;;;27.20;24.63;;;7.10;99.90;;;;;;4990714;28;20049;-76
2022/04/24 05:30:33;;;;;;;26.85;24.75;;;7.20;99.90;;;;;;4994446;28;20061;-76
2022/04/24 05:33:00;;;;;;;25.48;23.48;;;7.20;99.90;;;;;;4980977;28;20042;-76
2022/04/24 05:35:27;;;;;;;28.33;25.92;;;7.30;99.90;;;;;;5006432;28;20046;-77
2022/04/24 05:37:53;;;;;;;27.65;25.33;;;7.30;99.90;;;;;;4975066;28;20391;-76
2022/04/24 05:40:20;;;;;;;29.17;26.73;;;7.40;99.90;;;;;;5006465;28;20053;-77
2022/04/24 05:42:55;;;;;;;26.85;24.60;;;7.40;99.90;;;;;;4988561;28;20134;-76
2022/04/24 05:45:27;;;;;;;29.13;26.83;;;7.40;99.90;;;;;;4989482;28;20883;-76
2022/04/24 05:47:54;;;;;;;27.58;25.10;;;7.50;99.90;;;;;;4986747;28;21139;-77
2022/04/24 05:50:23;;;;;;;29.38;27.00;;;7.50;99.90;;;;;;5002700;28;20416;-76
2022/04/24 05:52:53;;;;;;;30.05;27.75;;;7.60;99.90;;;;;;4988809;28;20072;-77
2022/04/24 05:55:20;;;;;;;29.33;26.95;;;7.60;99.90;;;;;;4974734;28;20457;-76
2022/04/24 05:57:49;;;;;;;29.55;27.08;;;7.70;99.90;;;;;;4989565;28;20116;-76
2022/04/24 06:00:17;;;;;;;28.85;26.55;;;7.70;99.90;;;;;;4986818;28;20049;-77
2022/04/24 06:02:51;;;;;;;26.77;24.48;;;7.60;99.90;;;;;;5003277;28;20056;-77
2022/04/24 06:05:18;;;;;;;30.08;27.30;;;7.70;99.90;;;;;;4987431;28;20157;-77
2022/04/24 06:07:44;;;;;;;29.42;26.73;;;7.80;99.90;;;;;;4988698;28;20056;-77
2022/04/24 06:10:11;;;;;;;29.92;27.45;;;7.90;99.90;;;;;;4988357;28;20124;-77
2022/04/24 06:12:55;;;;;;;28.23;25.88;;;7.90;99.90;;;;;;4992548;28;20046;-77
2022/04/24 06:15:24;;;;;;;28.50;26.00;;;8.00;99.90;;;;;;4996160;28;20050;-77
2022/04/24 06:17:53;;;;;;;28.52;26.10;;;7.90;99.90;;;;;;4995309;28;20038;-77
2022/04/24 06:20:22;;;;;;;28.48;26.30;;;7.80;99.90;;;;;;4995152;28;20539;-77
2022/04/24 06:22:50;;;;;;;28.42;26.13;;;7.90;99.90;;;;;;4990068;28;20111;-77
2022/04/24 06:25:18;;;;;;;29.25;26.83;;;8.00;99.90;;;;;;4979024;28;20081;-77
2022/04/24 06:27:46;;;;;;;28.25;25.83;;;8.00;99.90;;;;;;4991379;28;20044;-76
2022/04/24 06:30:15;;;;;;;26.67;24.65;;;8.00;99.90;;;;;;4994039;28;20041;-76
2022/04/24 06:32:42;;;;;;;29.15;26.60;;;8.10;99.90;;;;;;4979730;28;20143;-77
2022/04/24 06:35:12;;;;;;;28.27;26.27;;;8.30;99.90;;;;;;4995344;28;20038;-77
2022/04/24 06:37:39;;;;;;;28.10;25.95;;;8.50;99.90;;;;;;4994992;28;20632;-77
2022/04/24 06:40:08;;;;;;;28.20;26.00;;;8.50;99.90;;;;;;4976228;28;20101;-77
2022/04/24 06:42:46;;;;;;;27.90;25.33;;;8.60;99.90;;;;;;4993528;28;20080;-77
2022/04/24 06:45:12;;;;;;;27.02;24.83;;;8.60;99.90;;;;;;4992418;28;20654;-76
2022/04/24 06:47:39;;;;;;;28.50;26.00;;;8.70;99.90;;;;;;5002743;28;20565;-77
2022/04/24 06:50:06;;;;;;;28.33;26.20;;;8.80;99.90;;;;;;4994232;28;20050;-77
2022/04/24 06:52:33;;;;;;;27.33;24.92;;;8.70;99.90;;;;;;4993081;28;20100;-76
2022/04/24 06:55:00;;;;;;;27.30;25.08;;;8.90;99.90;;;;;;4992545;28;20054;-77
2022/04/24 06:57:27;;;;;;;27.05;24.98;;;9.00;99.90;;;;;;4980438;28;20054;-77
2022/04/24 06:59:54;;;;;;;29.42;27.02;;;9.10;99.90;;;;;;4994768;28;20144;-77
2022/04/24 07:02:20;;;;;;;30.23;27.77;;;9.50;99.90;;;;;;4995503;28;20054;-77
2022/04/24 07:04:47;;;;;;;27.33;25.08;;;9.40;99.90;;;;;;4979622;28;20054;-77
2022/04/24 07:07:14;;;;;;;29.65;27.27;;;9.20;99.90;;;;;;5010046;28;20042;-76
2022/04/24 07:09:41;;;;;;;29.00;26.83;;;9.20;99.90;;;;;;5000243;28;20045;-75
2022/04/24 07:12:08;;;;;;;30.70;28.23;;;9.50;99.90;;;;;;4996757;28;20050;-74
2022/04/24 07:14:35;;;;;;;30.98;28.58;;;9.40;99.90;;;;;;4999458;28;20046;-75
2022/04/24 07:17:02;;;;;;;30.02;27.92;;;9.50;99.90;;;;;;4996293;28;20054;-74
2022/04/24 07:19:29;;;;;;;31.73;29.42;;;9.50;99.90;;;;;;4979930;28;20058;-74
2022/04/24 07:21:57;;;;;;;31.20;28.60;;;9.70;99.90;;;;;;4981057;28;20061;-74
2022/04/24 07:24:23;;;;;;;30.08;28.08;;;9.80;99.90;;;;;;4973673;28;20160;-75
2022/04/24 07:26:50;;;;;;;29.75;27.45;;;9.70;99.90;;;;;;4995773;28;20049;-74
2022/04/24 07:29:17;;;;;;;31.25;29.05;;;9.60;99.90;;;;;;4998753;28;20116;-74
2022/04/24 07:31:44;;;;;;;30.65;28.35;;;9.90;99.90;;;;;;4997535;28;20050;-75
2022/04/24 07:34:11;;;;;;;32.20;29.83;;;10.10;99.90;;;;;;4977828;28;20097;-75
2022/04/24 07:36:38;;;;;;;31.88;29.58;;;10.00;99.90;;;;;;5014927;28;20513;-75
2022/04/24 07:39:04;;;;;;;30.80;28.23;;;10.00;99.90;;;;;;4980580;28;20053;-74
2022/04/24 07:41:31;;;;;;;32.60;30.05;;;10.20;99.90;;;;;;4998309;28;20073;-74
2022/04/24 07:43:58;;;;;;;31.83;29.55;;;10.30;99.90;;;;;;4997019;28;20566;-74
2022/04/24 07:46:24;;;;;;;30.95;28.85;;;10.70;99.90;;;;;;4991824;28;20161;-75
2022/04/24 07:48:51;;;;;;;31.65;29.05;;;10.80;99.90;;;;;;4983043;28;20171;-74
2022/04/24 07:51:18;;;;;;;31.10;29.00;;;11.00;99.90;;;;;;4990894;28;20049;-74
2022/04/24 07:53:45;;;;;;;32.03;29.33;;;11.00;99.90;;;;;;4989589;28;20136;-75
2022/04/24 07:56:11;;;;;;;30.45;28.23;;;11.10;99.90;;;;;;4996570;28;20053;-75
2022/04/24 07:58:42;;;;;;;29.42;27.20;;;10.90;99.90;;;;;;4991944;28;20054;-77
2022/04/24 08:01:11;;;;;;;29.77;27.58;;;11.30;99.90;;;;;;4979308;28;20045;-77
2022/04/24 08:03:37;;;;;;;31.42;29.02;;;11.10;99.90;;;;;;4990190;28;20100;-77
2022/04/24 08:06:04;;;;;;;32.67;30.15;;;11.00;99.90;;;;;;4987611;28;20042;-77
2022/04/24 08:08:31;;;;;;;31.35;28.92;;;10.60;99.90;;;;;;4997967;28;20045;-78
2022/04/24 08:10:58;;;;;;;33.78;31.15;;;10.80;99.90;;;;;;4988353;28;20105;-77
2022/04/24 08:13:26;;;;;;;29.65;27.58;;;11.10;99.90;;;;;;4974370;28;20187;-75
2022/04/24 08:15:54;;;;;;;31.80;29.55;;;11.70;99.90;;;;;;4968857;28;20049;-74
2022/04/24 08:18:21;;;;;;;32.92;30.58;;;12.20;99.90;;;;;;4975388;28;20053;-75
2022/04/24 08:20:47;;;;;;;34.53;31.98;;;12.00;99.90;;;;;;4987840;28;20053;-75
2022/04/24 08:23:16;;;;;;;35.10;32.38;;;12.10;99.90;;;;;;4988368;28;20061;-75
2022/04/24 08:25:43;;;;;;;31.27;28.77;;;11.90;99.90;;;;;;4971101;28;20537;-75
2022/04/24 08:28:12;;;;;;;35.25;32.63;;;12.20;99.90;;;;;;4989208;28;20089;-75
2022/04/24 08:30:43;;;;;;;31.33;29.23;;;11.80;99.90;;;;;;5004491;28;20060;-75
2022/04/24 08:33:11;;;;;;;32.80;30.48;;;11.70;99.90;;;;;;4992264;28;20138;-74
2022/04/24 08:35:38;;;;;;;32.42;29.85;;;11.50;99.90;;;;;;4977794;28;21303;-75
2022/04/24 08:38:05;;;;;;;32.65;30.23;;;11.40;99.90;;;;;;4992623;28;20050;-74
2022/04/24 08:40:32;;;;;;;35.70;32.97;;;11.20;99.90;;;;;;4992774;28;20054;-74
2022/04/24 08:43:00;;;;;;;38.42;35.70;;;11.40;99.90;;;;;;4989852;28;20156;-75
2022/04/24 08:45:29;;;;;;;37.40;34.42;;;11.60;99.90;;;;;;4991746;28;20595;-77
2022/04/24 08:47:57;;;;;;;36.47;33.88;;;12.10;99.90;;;;;;5006221;28;20042;-76
2022/04/24 08:50:31;;;;;;;36.13;33.30;;;12.40;99.90;;;;;;4975124;28;20047;-77
2022/04/24 08:52:58;;;;;;;35.70;33.05;;;12.60;99.90;;;;;;4978418;28;20312;-77
2022/04/24 08:55:32;;;;;;;36.72;34.10;;;12.40;99.90;;;;;;4992590;28;20038;-78
2022/04/24 08:57:59;;;;;;;37.85;34.78;;;12.40;99.90;;;;;;4993370;28;20049;-78
2022/04/24 09:00:30;;;;;;;36.92;34.22;;;12.60;99.90;;;;;;4989175;28;20056;-77
2022/04/24 09:03:00;;;;;;;37.78;34.90;;;12.70;99.90;;;;;;4994825;28;20050;-77
2022/04/24 09:05:30;;;;;;;37.22;34.50;;;12.70;99.90;;;;;;4978684;28;21530;-77
2022/04/24 09:08:08;;;;;;;34.08;31.70;;;12.80;99.90;;;;;;4992783;28;20137;-78
2022/04/24 09:10:57;;;;;;;36.65;34.15;;;13.10;99.90;;;;;;4989847;28;20046;-78
2022/04/24 09:13:29;;;;;;;35.95;33.30;;;13.20;99.90;;;;;;4991437;28;20058;-77
2022/04/24 09:16:02;;;;;;;38.67;35.70;;;13.30;99.90;;;;;;4993571;28;20081;-78
2022/04/24 09:18:39;;;;;;;36.53;33.95;;;13.30;99.90;;;;;;4995908;28;20624;-77
2022/04/24 09:21:06;;;;;;;39.03;36.22;;;13.40;99.90;;;;;;4973019;28;20042;-78
2022/04/24 09:23:35;;;;;;;38.75;35.92;;;13.60;99.90;;;;;;4993929;28;20401;-75
2022/04/24 09:26:02;;;;;;;38.10;35.05;;;13.80;99.90;;;;;;4989080;28;20723;-75
2022/04/24 09:28:37;;;;;;;38.35;35.65;;;13.70;99.90;;;;;;4993568;28;20092;-75
2022/04/24 09:31:05;;;;;;;38.05;35.28;;;13.60;99.90;;;;;;4993176;28;20080;-77
2022/04/24 09:33:39;;;;;;;36.22;33.35;;;13.90;99.90;;;;;;4977977;28;20597;-76
2022/04/24 09:36:11;;;;;;;36.83;34.40;;;13.90;99.90;;;;;;4997516;28;20041;-77
2022/04/24 09:38:44;;;;;;;36.95;34.35;;;14.20;99.90;;;;;;4974893;28;20045;-76
2022/04/24 09:41:17;;;;;;;36.63;34.05;;;14.10;99.90;;;;;;4991010;28;20046;-77
2022/04/24 09:43:44;;;;;;;36.38;33.70;;;14.30;99.90;;;;;;4996942;28;20263;-76
2022/04/24 09:46:12;;;;;;;37.17;34.67;;;14.40;99.90;;;;;;4989940;28;20057;-77
2022/04/24 09:48:39;;;;;;;36.45;33.85;;;14.50;99.90;;;;;;4979500;28;20287;-76
2022/04/24 09:51:08;;;;;;;35.85;33.20;;;14.70;99.90;;;;;;4987267;28;20131;-76
2022/04/24 09:53:42;;;;;;;34.13;31.92;;;14.20;99.90;;;;;;4995595;28;20061;-75
2022/04/24 09:56:10;;;;;;;38.25;35.55;;;14.40;99.90;;;;;;4971745;28;20594;-74
2022/04/24 09:58:37;;;;;;;38.78;35.97;;;14.40;99.90;;;;;;4994471;28;20049;-74
2022/04/24 10:01:06;;;;;;;37.80;35.15;;;14.50;99.90;;;;;;4972251;28;20050;-75
2022/04/24 10:03:35;;;;;;;38.83;36.15;;;15.00;99.90;;;;;;4978736;28;20046;-75
2022/04/24 10:06:04;;;;;;;38.63;36.13;;;14.70;99.90;;;;;;4995144;28;20053;-75
2022/04/24 10:08:35;;;;;;;39.05;36.35;;;14.40;99.90;;;;;;4995511;28;20081;-75
2022/04/24 10:11:06;;;;;;;37.75;35.40;;;14.40;99.90;;;;;;4977187;28;20084;-77
2022/04/24 10:13:43;;;;;;;38.70;35.88;;;14.40;99.90;;;;;;4975646;28;20420;-77
2022/04/24 10:16:35;;;;;;;37.28;34.72;;;14.40;99.90;;;;;;4996765;28;20046;-77
2022/04/24 10:19:41;;;;;;;39.63;36.58;;;14.30;99.90;;;;;;5011897;28;20054;-76
2022/04/24 10:22:23;;;;;;;41.13;38.17;;;14.30;99.90;;;;;;4974500;28;20058;-77
2022/04/24 10:25:02;;;;;;;39.10;36.50;;;14.30;99.90;;;;;;4976869;28;20133;-76
2022/04/24 10:27:44;;;;;;;35.20;32.90;;;14.60;99.90;;;;;;4995686;28;20066;-77
2022/04/24 10:30:18;;;;;;;40.30;37.55;;;14.50;99.90;;;;;;4993320;28;20073;-76
2022/04/24 10:32:48;;;;;;;40.42;37.63;;;14.60;99.90;;;;;;4998620;28;20037;-76
2022/04/24 10:35:20;;;;;;;39.33;36.75;;;14.60;99.90;;;;;;4977425;28;20073;-74
2022/04/24 10:37:47;;;;;;;38.72;36.22;;;15.00;99.90;;;;;;4982601;28;20049;-75
2022/04/24 10:40:17;;;;;;;40.63;37.90;;;15.30;99.90;;;;;;4999251;28;20126;-74
2022/04/24 10:42:44;;;;;;;39.33;36.92;;;15.00;99.90;;;;;;4993769;28;20226;-75
2022/04/24 10:45:16;;;;;;;40.08;37.47;;;15.10;99.90;;;;;;4994689;28;20066;-75
2022/04/24 10:47:53;;;;;;;38.92;36.60;;;15.30;99.90;;;;;;4991858;28;20145;-74
2022/04/24 10:50:20;;;;;;;39.80;37.20;;;14.90;99.90;;;;;;5012989;28;20139;-75
2022/04/24 10:52:52;;;;;;;37.63;35.20;;;14.70;99.90;;;;;;4991056;28;20143;-74
2022/04/24 10:55:26;;;;;;;38.25;35.58;;;15.00;99.90;;;;;;4996278;28;20096;-74
2022/04/24 10:57:59;;;;;;;37.63;34.78;;;14.80;99.90;;;;;;4998414;28;20592;-77
2022/04/24 11:00:34;;;;;;;37.63;35.03;;;14.70;99.90;;;;;;4996145;28;20425;-77
2022/04/24 11:03:14;;;;;;;;;;;14.60;99.90;;;;;;4995813;28;20053;-76
2022/04/24 11:05:44;;;;;;;38.60;35.83;;;14.80;99.90;;;;;;4994597;28;19987;-76
2022/04/24 11:08:18;;;;;;;37.42;35.05;;;15.00;99.90;;;;;;4975892;28;20132;-77
2022/04/24 11:10:48;;;;;;;39.35;36.75;;;15.00;99.90;;;;;;4995672;28;20132;-74
2022/04/24 11:13:19;;;;;;;37.22;34.80;;;15.20;99.90;;;;;;4978527;28;20073;-77
2022/04/24 11:15:48;;;;;;;39.92;37.13;;;14.90;99.90;;;;;;4993156;28;20529;-76
2022/04/24 11:18:20;;;;;;;35.88;33.08;;;14.80;99.90;;;;;;4992714;28;20050;-75
2022/04/24 11:21:03;;;;;;;38.58;35.65;;;15.30;99.90;;;;;;4987436;28;20501;-74
2022/04/24 11:23:38;;;;;;;39.92;37.08;;;14.90;99.90;;;;;;4988359;28;20057;-74
2022/04/24 11:26:12;;;;;;;35.72;33.25;;;14.80;99.90;;;;;;4989823;28;20065;-74
2022/04/24 11:28:40;;;;;;;39.05;36.25;;;15.20;99.90;;;;;;4987160;28;20109;-74
2022/04/24 11:31:16;;;;;;;39.97;37.20;;;15.20;99.90;;;;;;5005180;28;20669;-76
2022/04/24 11:34:05;;;;;;;35.33;32.78;;;15.10;99.90;;;;;;4992012;28;20086;-76
2022/04/24 11:36:34;;;;;;;41.28;38.22;;;14.80;99.90;;;;;;4998415;28;20159;-77
2022/04/24 11:39:03;;;;;;;38.50;35.67;;;14.70;99.90;;;;;;4989917;28;20512;-76
2022/04/24 11:41:31;;;;;;;40.00;37.28;;;14.90;99.90;;;;;;4987107;28;20144;-75
2022/04/24 11:50:14;;;;;;;38.70;36.22;;;15.00;99.90;;;;;;5006020;28;20056;-76
2022/04/24 11:53:02;;;;;;;37.50;34.88;;;14.80;99.90;;;;;;4966820;28;20042;-76
2022/04/24 11:58:16;;;;;;;38.78;36.10;;;15.30;99.90;;;;;;4996552;28;20052;-76
2022/04/24 12:00:43;;;;;;;39.40;36.85;;;15.50;99.90;;;;;;4992692;28;20054;-74
2022/04/24 12:03:09;;;;;;;39.63;37.10;;;15.40;99.90;;;;;;4979669;28;20143;-76
2022/04/24 12:05:37;;;;;;;35.03;32.53;;;15.60;99.90;;;;;;5003276;28;20046;-76
2022/04/24 12:08:04;;;;;;;39.88;37.20;;;15.20;99.90;;;;;;4981539;28;20049;-76
2022/04/24 12:10:31;;;;;;;41.22;38.42;;;15.00;99.90;;;;;;4978656;28;20061;-74
2022/04/24 12:13:06;;;;;;;41.42;38.72;;;15.20;99.90;;;;;;4978935;28;20715;-75
2022/04/24 12:15:34;;;;;;;40.30;37.65;;;15.60;99.90;;;;;;4991413;28;20042;-75
2022/04/24 12:18:01;;;;;;;34.95;32.35;;;15.70;99.90;;;;;;4993282;28;20045;-74
2022/04/24 12:20:41;;;;;;;38.80;36.40;;;15.20;99.90;;;;;;4989780;28;20046;-75
2022/04/24 12:23:11;;;;;;;34.55;32.25;;;14.80;99.90;;;;;;4992909;28;20092;-76
2022/04/24 12:25:54;;;;;;;35.08;32.72;;;15.10;99.90;;;;;;4989431;28;20054;-76
2022/04/24 12:28:31;;;;;;;;;;;15.00;99.90;;;;;;4991943;28;20135;-77
2022/04/24 12:31:03;;;;;;;37.05;34.35;;;14.90;99.90;;;;;;4978426;28;20380;-76
2022/04/24 12:33:31;;;;;;;37.90;35.38;;;15.10;99.90;;;;;;4993865;28;20050;-76
2022/04/24 12:36:09;;;;;;;37.95;35.35;;;14.90;99.90;;;;;;4997384;28;21007;-76
2022/04/24 12:38:35;;;;;;;35.80;33.25;;;15.20;99.90;;;;;;4995841;28;20053;-74
2022/04/24 12:41:08;;;;;;;37.25;34.70;;;15.50;99.90;;;;;;5007069;28;20320;-75
2022/04/24 12:43:35;;;;;;;36.13;33.60;;;15.10;99.90;;;;;;4995590;28;20983;-74
2022/04/24 12:46:02;;;;;;;35.85;33.22;;;15.10;99.90;;;;;;4992462;28;20153;-74
2022/04/24 12:48:29;;;;;;;35.85;33.45;;;14.70;99.90;;;;;;4993589;28;20042;-76
2022/04/24 12:50:56;;;;;;;36.15;33.63;;;14.50;99.90;;;;;;4994159;28;20054;-76